F/V Guevellezed 2 — FGE8986 — position and weather

sailwx.info

Track history (hours):
 
Tides and Currents Weather Stations Pressure Air Temp Water Temp Dewpoint Dewpoint Depression Visibility Wind Speed Wind Dir Waves Ship Positions

F/V Guevellezed 2

Last reported at 2017-Sep-22 02:00 UTC. Time now 2017-Sep-22 17:21 UTC.
Position N 47°38' W 003°17'.

Length 12 m.

Type: Fishing. MMSI: 227686910.

Date/timePositionNaut miles runAvg speedWind from/ knotsBaromVisibWave heightAir tempDewpointWater temp
2017-Sep-22 02:00N 47°38' W 003°17'4 8.4
2017-Sep-22 01:30N 47°41' W 003°22'3 5.8
2017-Sep-22 00:59N 47°44' W 003°22'0 0.0
2017-Sep-21 12:53N 47°44' W 003°22'0 0.1
2017-Sep-21 12:29N 47°44' W 003°22'3 6.5
2017-Sep-21 12:00N 47°41' W 003°22'4 8.1
2017-Sep-21 11:30N 47°38' W 003°17'6 1.1
2017-Sep-21 06:22N 47°33' W 003°13'2 5.3
2017-Sep-21 06:00N 47°32' W 003°15'1 2.7
2017-Sep-21 05:30N 47°31' W 003°16'0 0.8
2017-Sep-21 05:00N 47°31' W 003°16'1 2.7
2017-Sep-21 04:30N 47°32' W 003°15'2 3.2
2017-Sep-21 04:00N 47°33' W 003°13'3 2.8
2017-Sep-21 03:03N 47°35' W 003°11'0 8.5
2017-Sep-21 03:00N 47°35' W 003°12'1 2.8
2017-Sep-21 02:30N 47°36' W 003°14'4 7.1
2017-Sep-21 02:00N 47°38' W 003°18'4 8.0
2017-Sep-21 01:30N 47°41' W 003°22'3 5.3
2017-Sep-21 00:57N 47°44' W 003°22'0 0.0
2017-Sep-20 13:25N 47°44' W 003°22'0 0.1
2017-Sep-20 13:00N 47°44' W 003°22'2 5.1
2017-Sep-20 12:30N 47°41' W 003°22'4 8.0
2017-Sep-20 12:00N 47°39' W 003°18'3 2.8
2017-Sep-20 11:00N 47°37' W 003°15'1 2.1
2017-Sep-20 10:30N 47°36' W 003°14'2 3.5
2017-Sep-20 10:00N 47°35' W 003°12'1 1.3
2017-Sep-20 09:30N 47°35' W 003°11'1 1.6
2017-Sep-20 09:00N 47°35' W 003°12'1 1.1
2017-Sep-20 08:30N 47°35' W 003°11'4 1.6
2017-Sep-20 06:01N 47°32' W 003°15'0 5.5
2017-Sep-20 06:00N 47°32' W 003°15'1 2.6
2017-Sep-20 05:30N 47°31' W 003°16'2 1.9
2017-Sep-20 04:23N 47°33' W 003°14'3 8.6
2017-Sep-20 04:00N 47°34' W 003°10'1 2.7
2017-Sep-20 03:30N 47°35' W 003°10'1 2.8
2017-Sep-20 03:00N 47°35' W 003°12'3 5.3
2017-Sep-20 02:30N 47°37' W 003°15'2 4.8
2017-Sep-20 02:00N 47°38' W 003°17'4 8.1
2017-Sep-20 01:30N 47°41' W 003°22'3 5.6
2017-Sep-20 00:58N 47°44' W 003°22'0 0.0
2017-Sep-19 14:47N 47°44' W 003°22'0 0.1
2017-Sep-19 14:28N 47°44' W 003°22'2 3.6
2017-Sep-19 14:00N 47°42' W 003°22'2 4.1
2017-Sep-19 13:30N 47°40' W 003°22'3 5.9
2017-Sep-19 13:00N 47°39' W 003°18'7 1.1
2017-Sep-19 06:36N 47°34' W 003°11'1 8.4
2017-Sep-19 06:30N 47°34' W 003°12'4 7.5
2017-Sep-19 06:00N 47°31' W 003°16'0 0.1
2017-Sep-19 05:30N 47°31' W 003°16'0 0.7
2017-Sep-19 05:00N 47°31' W 003°16'1 2.3
2017-Sep-19 04:30N 47°32' W 003°15'3 5.7
2017-Sep-19 04:00N 47°34' W 003°12'4 2.3
2017-Sep-19 02:16N 47°37' W 003°15'2 8.1
2017-Sep-19 01:59N 47°38' W 003°17'4 8.2
2017-Sep-19 01:30N 47°41' W 003°22'3 5.9
2017-Sep-19 00:59N 47°44' W 003°22'0 0.0
2017-Sep-18 13:32N 47°44' W 003°22'0 0.0
2017-Sep-18 13:31N 47°44' W 003°22'1 1.3
2017-Sep-18 13:00N 47°43' W 003°22'4 7.3
2017-Sep-18 12:30N 47°40' W 003°20'4 7.8
2017-Sep-18 12:00N 47°37' W 003°15'5 0.8
2017-Sep-18 05:39N 47°33' W 003°12'1 8.3
2017-Sep-18 05:31N 47°33' W 003°13'3 5.2
2017-Sep-18 05:01N 47°31' W 003°16'4 7.7
2017-Sep-18 04:30N 47°34' W 003°12'2 1.7
2017-Sep-18 03:19N 47°36' W 003°12'2 5.0
2017-Sep-18 02:55N 47°37' W 003°15'2 5.7
2017-Sep-18 02:31N 47°38' W 003°17'4 8.0
2017-Sep-18 02:01N 47°41' W 003°22'3 5.4
2017-Sep-18 01:27N 47°44' W 003°22'0 0.0
2017-Sep-16 13:05N 47°44' W 003°22'0 0.0
2017-Sep-16 13:00N 47°44' W 003°22'1 1.5
2017-Sep-16 12:30N 47°43' W 003°22'4 7.1
2017-Sep-16 12:00N 47°40' W 003°20'4 7.9
2017-Sep-16 11:30N 47°37' W 003°16'3 1.4
2017-Sep-16 09:04N 47°36' W 003°11'0 7.3
2017-Sep-16 09:00N 47°35' W 003°11'1 1.8
2017-Sep-16 08:30N 47°35' W 003°12'1 2.2
2017-Sep-16 08:00N 47°35' W 003°11'1 1.7
2017-Sep-16 07:30N 47°36' W 003°11'1 1.1
2017-Sep-16 06:23N 47°35' W 003°10'0 0.5
2017-Sep-16 06:00N 47°35' W 003°10'4 1.2
2017-Sep-16 02:50N 47°37' W 003°14'2 6.9
2017-Sep-16 02:30N 47°38' W 003°17'4 7.6
2017-Sep-16 02:00N 47°40' W 003°22'3 6.2
2017-Sep-16 01:28N 47°44' W 003°22'0 0.0
2017-Sep-15 15:06N 47°44' W 003°22'0 0.2
2017-Sep-15 15:00N 47°44' W 003°22'0 0.7
2017-Sep-15 14:30N 47°43' W 003°22'3 7.0
2017-Sep-15 14:00N 47°40' W 003°21'4 8.0
2017-Sep-15 13:30N 47°38' W 003°16'5 0.5
2017-Sep-15 03:33N 47°35' W 003°11'0 5.9
2017-Sep-15 03:30N 47°35' W 003°11'1 1.1
2017-Sep-15 03:00N 47°35' W 003°12'2 4.4
2017-Sep-15 02:30N 47°37' W 003°14'4 7.2
2017-Sep-15 02:00N 47°39' W 003°18'4 7.2
2017-Sep-15 01:30N 47°41' W 003°22'3 5.0
2017-Sep-15 00:58N 47°44' W 003°22'0 0.0
2017-Sep-14 10:20N 47°44' W 003°22'0 0.0
2017-Sep-14 10:00N 47°44' W 003°22'0 0.0
2017-Sep-14 09:29N 47°44' W 003°22'0 0.0
2017-Sep-14 08:25N 47°44' W 003°22'0 0.0
2017-Sep-12 13:49N 47°44' W 003°22'0 0.1
2017-Sep-12 13:29N 47°44' W 003°22'3 5.5
2017-Sep-12 13:00N 47°41' W 003°22'4 7.5
2017-Sep-12 12:30N 47°39' W 003°18'4 7.6
2017-Sep-12 12:00N 47°37' W 003°13'2 0.3
2017-Sep-12 06:32N 47°35' W 003°12'0 2.5
2017-Sep-12 06:30N 47°36' W 003°12'1 0.2
2017-Sep-12 03:26N 47°35' W 003°12'2 4.6
2017-Sep-12 03:00N 47°35' W 003°15'4 7.4
2017-Sep-12 02:30N 47°38' W 003°19'  
Track history (hours):
 
Tides and Currents Weather Stations Pressure Air Temp Water Temp Dewpoint Dewpoint Depression Visibility Wind Speed Wind Dir Waves Ship Positions

F/V Guevellezed 2

Last reported at 2017-Sep-22 02:00 UTC. Time now 2017-Sep-22 17:21 UTC.
Position N 47°38' W 003°17'.

Length 12 m.

Type: Fishing. MMSI: 227686910.

Date/timePositionNaut miles runAvg speedWind from/ knotsBaromVisibWave heightAir tempDewpointWater temp
2017-Sep-22 02:00N 47°38' W 003°17'4 8.4
2017-Sep-22 01:30N 47°41' W 003°22'3 5.8
2017-Sep-22 00:59N 47°44' W 003°22'0 0.0
2017-Sep-21 12:53N 47°44' W 003°22'0 0.1
2017-Sep-21 12:29N 47°44' W 003°22'3 6.5
2017-Sep-21 12:00N 47°41' W 003°22'4 8.1
2017-Sep-21 11:30N 47°38' W 003°17'6 1.1
2017-Sep-21 06:22N 47°33' W 003°13'2 5.3
2017-Sep-21 06:00N 47°32' W 003°15'1 2.7
2017-Sep-21 05:30N 47°31' W 003°16'0 0.8
2017-Sep-21 05:00N 47°31' W 003°16'1 2.7
2017-Sep-21 04:30N 47°32' W 003°15'2 3.2
2017-Sep-21 04:00N 47°33' W 003°13'3 2.8
2017-Sep-21 03:03N 47°35' W 003°11'0 8.5
2017-Sep-21 03:00N 47°35' W 003°12'1 2.8
2017-Sep-21 02:30N 47°36' W 003°14'4 7.1
2017-Sep-21 02:00N 47°38' W 003°18'4 8.0
2017-Sep-21 01:30N 47°41' W 003°22'3 5.3
2017-Sep-21 00:57N 47°44' W 003°22'0 0.0
2017-Sep-20 13:25N 47°44' W 003°22'0 0.1
2017-Sep-20 13:00N 47°44' W 003°22'2 5.1
2017-Sep-20 12:30N 47°41' W 003°22'4 8.0
2017-Sep-20 12:00N 47°39' W 003°18'3 2.8
2017-Sep-20 11:00N 47°37' W 003°15'1 2.1
2017-Sep-20 10:30N 47°36' W 003°14'2 3.5
2017-Sep-20 10:00N 47°35' W 003°12'1 1.3
2017-Sep-20 09:30N 47°35' W 003°11'1 1.6
2017-Sep-20 09:00N 47°35' W 003°12'1 1.1
2017-Sep-20 08:30N 47°35' W 003°11'4 1.6
2017-Sep-20 06:01N 47°32' W 003°15'0 5.5
2017-Sep-20 06:00N 47°32' W 003°15'1 2.6
2017-Sep-20 05:30N 47°31' W 003°16'2 1.9
2017-Sep-20 04:23N 47°33' W 003°14'3 8.6
2017-Sep-20 04:00N 47°34' W 003°10'1 2.7
2017-Sep-20 03:30N 47°35' W 003°10'1 2.8
2017-Sep-20 03:00N 47°35' W 003°12'3 5.3
2017-Sep-20 02:30N 47°37' W 003°15'2 4.8
2017-Sep-20 02:00N 47°38' W 003°17'4 8.1
2017-Sep-20 01:30N 47°41' W 003°22'3 5.6
2017-Sep-20 00:58N 47°44' W 003°22'0 0.0
2017-Sep-19 14:47N 47°44' W 003°22'0 0.1
2017-Sep-19 14:28N 47°44' W 003°22'2 3.6
2017-Sep-19 14:00N 47°42' W 003°22'2 4.1
2017-Sep-19 13:30N 47°40' W 003°22'3 5.9
2017-Sep-19 13:00N 47°39' W 003°18'7 1.1
2017-Sep-19 06:36N 47°34' W 003°11'1 8.4
2017-Sep-19 06:30N 47°34' W 003°12'4 7.5
2017-Sep-19 06:00N 47°31' W 003°16'0 0.1
2017-Sep-19 05:30N 47°31' W 003°16'0 0.7
2017-Sep-19 05:00N 47°31' W 003°16'1 2.3
2017-Sep-19 04:30N 47°32' W 003°15'3 5.7
2017-Sep-19 04:00N 47°34' W 003°12'4 2.3
2017-Sep-19 02:16N 47°37' W 003°15'2 8.1
2017-Sep-19 01:59N 47°38' W 003°17'4 8.2
2017-Sep-19 01:30N 47°41' W 003°22'3 5.9
2017-Sep-19 00:59N 47°44' W 003°22'0 0.0
2017-Sep-18 13:32N 47°44' W 003°22'0 0.0
2017-Sep-18 13:31N 47°44' W 003°22'1 1.3
2017-Sep-18 13:00N 47°43' W 003°22'4 7.3
2017-Sep-18 12:30N 47°40' W 003°20'4 7.8
2017-Sep-18 12:00N 47°37' W 003°15'5 0.8
2017-Sep-18 05:39N 47°33' W 003°12'1 8.3
2017-Sep-18 05:31N 47°33' W 003°13'3 5.2
2017-Sep-18 05:01N 47°31' W 003°16'4 7.7
2017-Sep-18 04:30N 47°34' W 003°12'2 1.7
2017-Sep-18 03:19N 47°36' W 003°12'2 5.0
2017-Sep-18 02:55N 47°37' W 003°15'2 5.7
2017-Sep-18 02:31N 47°38' W 003°17'4 8.0
2017-Sep-18 02:01N 47°41' W 003°22'3 5.4
2017-Sep-18 01:27N 47°44' W 003°22'0 0.0
2017-Sep-16 13:05N 47°44' W 003°22'0 0.0
2017-Sep-16 13:00N 47°44' W 003°22'1 1.5
2017-Sep-16 12:30N 47°43' W 003°22'4 7.1
2017-Sep-16 12:00N 47°40' W 003°20'4 7.9
2017-Sep-16 11:30N 47°37' W 003°16'3 1.4
2017-Sep-16 09:04N 47°36' W 003°11'0 7.3
2017-Sep-16 09:00N 47°35' W 003°11'1 1.8
2017-Sep-16 08:30N 47°35' W 003°12'1 2.2
2017-Sep-16 08:00N 47°35' W 003°11'1 1.7
2017-Sep-16 07:30N 47°36' W 003°11'1 1.1
2017-Sep-16 06:23N 47°35' W 003°10'0 0.5
2017-Sep-16 06:00N 47°35' W 003°10'4 1.2
2017-Sep-16 02:50N 47°37' W 003°14'2 6.9
2017-Sep-16 02:30N 47°38' W 003°17'4 7.6
2017-Sep-16 02:00N 47°40' W 003°22'3 6.2
2017-Sep-16 01:28N 47°44' W 003°22'0 0.0
2017-Sep-15 15:06N 47°44' W 003°22'0 0.2
2017-Sep-15 15:00N 47°44' W 003°22'0 0.7
2017-Sep-15 14:30N 47°43' W 003°22'3 7.0
2017-Sep-15 14:00N 47°40' W 003°21'4 8.0
2017-Sep-15 13:30N 47°38' W 003°16'5 0.5
2017-Sep-15 03:33N 47°35' W 003°11'0 5.9
2017-Sep-15 03:30N 47°35' W 003°11'1 1.1
2017-Sep-15 03:00N 47°35' W 003°12'2 4.4
2017-Sep-15 02:30N 47°37' W 003°14'4 7.2
2017-Sep-15 02:00N 47°39' W 003°18'4 7.2
2017-Sep-15 01:30N 47°41' W 003°22'3 5.0
2017-Sep-15 00:58N 47°44' W 003°22'0 0.0
2017-Sep-14 10:20N 47°44' W 003°22'0 0.0
2017-Sep-14 10:00N 47°44' W 003°22'0 0.0
2017-Sep-14 09:29N 47°44' W 003°22'0 0.0
2017-Sep-14 08:25N 47°44' W 003°22'0 0.0
2017-Sep-12 13:49N 47°44' W 003°22'0 0.1
2017-Sep-12 13:29N 47°44' W 003°22'3 5.5
2017-Sep-12 13:00N 47°41' W 003°22'4 7.5
2017-Sep-12 12:30N 47°39' W 003°18'4 7.6
2017-Sep-12 12:00N 47°37' W 003°13'2 0.3
2017-Sep-12 06:32N 47°35' W 003°12'0 2.5
2017-Sep-12 06:30N 47°36' W 003°12'1 0.2
2017-Sep-12 03:26N 47°35' W 003°12'2 4.6
2017-Sep-12 03:00N 47°35' W 003°15'4 7.4
2017-Sep-12 02:30N 47°38' W 003°19'  

Dump ship's entire track history